sensor_id;sensor_type;location;lat;lon;timestamp;temperature;humidity
17879;DHT22;9065;51.050;13.758;2023-03-19T00:02:02;10.60;99.90
17879;DHT22;9065;51.050;13.758;2023-03-19T00:04:30;10.50;99.90
17879;DHT22;9065;51.050;13.758;2023-03-19T00:06:57;10.60;99.90
17879;DHT22;9065;51.050;13.758;2023-03-19T00:09:24;10.60;99.90
17879;DHT22;9065;51.050;13.758;2023-03-19T00:11:50;10.60;99.90
17879;DHT22;9065;51.050;13.758;2023-03-19T00:14:17;10.60;99.90
17879;DHT22;9065;51.050;13.758;2023-03-19T00:16:47;10.50;99.90
17879;DHT22;9065;51.050;13.758;2023-03-19T00:19:14;10.50;99.90
17879;DHT22;9065;51.050;13.758;2023-03-19T00:21:42;10.50;99.90
17879;DHT22;9065;51.050;13.758;2023-03-19T00:24:09;10.40;99.90
17879;DHT22;9065;51.050;13.758;2023-03-19T00:26:36;10.50;99.90
17879;DHT22;9065;51.050;13.758;2023-03-19T00:29:04;10.50;99.90
17879;DHT22;9065;51.050;13.758;2023-03-19T00:31:31;10.60;99.90
17879;DHT22;9065;51.050;13.758;2023-03-19T00:33:59;10.60;99.90
17879;DHT22;9065;51.050;13.758;2023-03-19T00:36:26;10.60;99.90
17879;DHT22;9065;51.050;13.758;2023-03-19T00:38:55;10.60;99.90
17879;DHT22;9065;51.050;13.758;2023-03-19T00:41:23;10.60;99.90
17879;DHT22;9065;51.050;13.758;2023-03-19T00:43:52;10.60;99.90
17879;DHT22;9065;51.050;13.758;2023-03-19T00:46:19;10.50;99.90
17879;DHT22;9065;51.050;13.758;2023-03-19T00:48:46;10.50;99.90
17879;DHT22;9065;51.050;13.758;2023-03-19T00:51:13;10.30;99.90
17879;DHT22;9065;51.050;13.758;2023-03-19T00:53:41;10.40;99.90
17879;DHT22;9065;51.050;13.758;2023-03-19T00:56:10;10.40;99.90
17879;DHT22;9065;51.050;13.758;2023-03-19T00:58:38;10.40;99.90
17879;DHT22;9065;51.050;13.758;2023-03-19T01:01:05;10.40;99.90
17879;DHT22;9065;51.050;13.758;2023-03-19T01:03:32;10.40;99.90
17879;DHT22;9065;51.050;13.758;2023-03-19T01:05:59;10.50;99.90
17879;DHT22;9065;51.050;13.758;2023-03-19T01:08:26;10.40;99.90
17879;DHT22;9065;51.050;13.758;2023-03-19T01:10:53;10.40;99.90
17879;DHT22;9065;51.050;13.758;2023-03-19T01:13:21;10.50;99.90
17879;DHT22;9065;51.050;13.758;2023-03-19T01:15:51;10.50;99.90
17879;DHT22;9065;51.050;13.758;2023-03-19T01:18:18;10.50;99.90
17879;DHT22;9065;51.050;13.758;2023-03-19T01:20:45;10.50;99.90
17879;DHT22;9065;51.050;13.758;2023-03-19T01:23:11;10.50;99.90
17879;DHT22;9065;51.050;13.758;2023-03-19T01:25:38;10.40;99.90
17879;DHT22;9065;51.050;13.758;2023-03-19T01:28:06;10.40;99.90
17879;DHT22;9065;51.050;13.758;2023-03-19T01:30:40;10.30;99.90
17879;DHT22;9065;51.050;13.758;2023-03-19T01:33:07;10.30;99.90
17879;DHT22;9065;51.050;13.758;2023-03-19T01:35:35;10.20;99.90
17879;DHT22;9065;51.050;13.758;2023-03-19T01:38:02;10.30;99.90
17879;DHT22;9065;51.050;13.758;2023-03-19T01:40:29;10.30;99.90
17879;DHT22;9065;51.050;13.758;2023-03-19T01:43:12;10.30;99.90
17879;DHT22;9065;51.050;13.758;2023-03-19T01:45:42;10.20;99.90
17879;DHT22;9065;51.050;13.758;2023-03-19T01:48:17;10.20;99.90
17879;DHT22;9065;51.050;13.758;2023-03-19T01:50:45;10.20;99.90
17879;DHT22;9065;51.050;13.758;2023-03-19T01:53:16;10.20;99.90
17879;DHT22;9065;51.050;13.758;2023-03-19T01:55:43;10.30;99.90
17879;DHT22;9065;51.050;13.758;2023-03-19T01:58:11;10.30;99.90
17879;DHT22;9065;51.050;13.758;2023-03-19T02:00:37;10.30;99.90
17879;DHT22;9065;51.050;13.758;2023-03-19T02:03:06;10.30;99.90
17879;DHT22;9065;51.050;13.758;2023-03-19T02:05:35;10.30;99.90
17879;DHT22;9065;51.050;13.758;2023-03-19T02:08:05;10.20;99.90
17879;DHT22;9065;51.050;13.758;2023-03-19T02:10:33;10.20;99.90
17879;DHT22;9065;51.050;13.758;2023-03-19T02:13:00;10.20;99.90
17879;DHT22;9065;51.050;13.758;2023-03-19T02:15:27;10.10;99.90
17879;DHT22;9065;51.050;13.758;2023-03-19T02:17:53;10.10;99.90
17879;DHT22;9065;51.050;13.758;2023-03-19T02:20:25;10.10;99.90
17879;DHT22;9065;51.050;13.758;2023-03-19T02:23:01;10.10;99.90
17879;DHT22;9065;51.050;13.758;2023-03-19T02:25:34;10.10;99.90
17879;DHT22;9065;51.050;13.758;2023-03-19T02:28:06;10.10;99.90
17879;DHT22;9065;51.050;13.758;2023-03-19T02:30:34;10.10;99.90
17879;DHT22;9065;51.050;13.758;2023-03-19T02:33:01;10.10;99.90
17879;DHT22;9065;51.050;13.758;2023-03-19T02:35:31;10.10;99.90
17879;DHT22;9065;51.050;13.758;2023-03-19T02:37:59;10.10;99.90
17879;DHT22;9065;51.050;13.758;2023-03-19T02:40:30;10.20;99.90
17879;DHT22;9065;51.050;13.758;2023-03-19T02:42:59;10.10;99.90
17879;DHT22;9065;51.050;13.758;2023-03-19T02:45:29;10.10;99.90
17879;DHT22;9065;51.050;13.758;2023-03-19T02:47:57;10.10;99.90
17879;DHT22;9065;51.050;13.758;2023-03-19T02:50:26;10.10;99.90
17879;DHT22;9065;51.050;13.758;2023-03-19T02:52:53;10.10;99.90
17879;DHT22;9065;51.050;13.758;2023-03-19T02:55:19;10.10;99.90
17879;DHT22;9065;51.050;13.758;2023-03-19T02:57:46;10.10;99.90
17879;DHT22;9065;51.050;13.758;2023-03-19T03:00:14;10.10;99.90
17879;DHT22;9065;51.050;13.758;2023-03-19T03:02:44;10.10;99.90
17879;DHT22;9065;51.050;13.758;2023-03-19T03:05:11;10.10;99.90
17879;DHT22;9065;51.050;13.758;2023-03-19T03:07:39;10.00;99.90
17879;DHT22;9065;51.050;13.758;2023-03-19T03:10:08;10.00;99.90
17879;DHT22;9065;51.050;13.758;2023-03-19T03:12:35;10.10;99.90
17879;DHT22;9065;51.050;13.758;2023-03-19T03:15:03;10.00;99.90
17879;DHT22;9065;51.050;13.758;2023-03-19T03:17:30;10.00;99.90
17879;DHT22;9065;51.050;13.758;2023-03-19T03:19:58;10.00;99.90
17879;DHT22;9065;51.050;13.758;2023-03-19T03:22:26;10.00;99.90
17879;DHT22;9065;51.050;13.758;2023-03-19T03:24:53;10.00;99.90
17879;DHT22;9065;51.050;13.758;2023-03-19T03:27:20;10.10;99.90
17879;DHT22;9065;51.050;13.758;2023-03-19T03:29:47;10.10;99.90
17879;DHT22;9065;51.050;13.758;2023-03-19T03:32:14;10.00;99.90
17879;DHT22;9065;51.050;13.758;2023-03-19T03:34:41;10.00;99.90
17879;DHT22;9065;51.050;13.758;2023-03-19T03:37:12;10.00;99.90
17879;DHT22;9065;51.050;13.758;2023-03-19T03:39:39;9.90;99.90
17879;DHT22;9065;51.050;13.758;2023-03-19T03:42:06;9.90;99.90
17879;DHT22;9065;51.050;13.758;2023-03-19T03:44:33;9.90;99.90
17879;DHT22;9065;51.050;13.758;2023-03-19T03:47:00;9.80;99.90
17879;DHT22;9065;51.050;13.758;2023-03-19T03:49:27;9.90;99.90
17879;DHT22;9065;51.050;13.758;2023-03-19T03:51:54;9.90;99.90
17879;DHT22;9065;51.050;13.758;2023-03-19T03:54:23;9.80;99.90
17879;DHT22;9065;51.050;13.758;2023-03-19T03:56:50;9.80;99.90
17879;DHT22;9065;51.050;13.758;2023-03-19T03:59:17;9.80;99.90
17879;DHT22;9065;51.050;13.758;2023-03-19T04:01:43;9.70;99.90
17879;DHT22;9065;51.050;13.758;2023-03-19T04:04:10;9.70;99.90
17879;DHT22;9065;51.050;13.758;2023-03-19T04:06:37;9.70;99.90
17879;DHT22;9065;51.050;13.758;2023-03-19T04:09:04;9.80;99.90
17879;DHT22;9065;51.050;13.758;2023-03-19T04:11:33;9.70;99.90
17879;DHT22;9065;51.050;13.758;2023-03-19T04:14:00;9.70;99.90
17879;DHT22;9065;51.050;13.758;2023-03-19T04:16:28;9.70;99.90
17879;DHT22;9065;51.050;13.758;2023-03-19T04:18:55;9.80;99.90
17879;DHT22;9065;51.050;13.758;2023-03-19T04:21:22;9.70;99.90
17879;DHT22;9065;51.050;13.758;2023-03-19T04:23:50;9.60;99.90
17879;DHT22;9065;51.050;13.758;2023-03-19T04:26:17;9.60;99.90
17879;DHT22;9065;51.050;13.758;2023-03-19T04:28:45;9.50;99.90
17879;DHT22;9065;51.050;13.758;2023-03-19T04:31:11;9.50;99.90
17879;DHT22;9065;51.050;13.758;2023-03-19T04:33:38;9.40;99.90
17879;DHT22;9065;51.050;13.758;2023-03-19T04:36:05;9.40;99.90
17879;DHT22;9065;51.050;13.758;2023-03-19T04:38:32;9.40;99.90
17879;DHT22;9065;51.050;13.758;2023-03-19T04:40:59;9.30;99.90
17879;DHT22;9065;51.050;13.758;2023-03-19T04:43:26;9.30;99.90
17879;DHT22;9065;51.050;13.758;2023-03-19T04:45:55;9.40;99.90
17879;DHT22;9065;51.050;13.758;2023-03-19T04:48:22;9.40;99.90
17879;DHT22;9065;51.050;13.758;2023-03-19T04:50:49;9.40;99.90
17879;DHT22;9065;51.050;13.758;2023-03-19T04:53:18;9.40;99.90
17879;DHT22;9065;51.050;13.758;2023-03-19T04:55:45;9.30;99.90
17879;DHT22;9065;51.050;13.758;2023-03-19T04:58:13;9.30;99.90
17879;DHT22;9065;51.050;13.758;2023-03-19T05:00:39;9.30;99.90
17879;DHT22;9065;51.050;13.758;2023-03-19T05:03:07;9.30;99.90
17879;DHT22;9065;51.050;13.758;2023-03-19T05:05:34;9.30;99.90
17879;DHT22;9065;51.050;13.758;2023-03-19T05:08:01;9.30;99.90
17879;DHT22;9065;51.050;13.758;2023-03-19T05:10:28;9.40;99.90
17879;DHT22;9065;51.050;13.758;2023-03-19T05:12:54;9.40;99.90
17879;DHT22;9065;51.050;13.758;2023-03-19T05:15:21;9.40;99.90
17879;DHT22;9065;51.050;13.758;2023-03-19T05:17:48;9.30;99.90
17879;DHT22;9065;51.050;13.758;2023-03-19T05:20:17;9.30;99.90
17879;DHT22;9065;51.050;13.758;2023-03-19T05:22:44;9.20;99.90
17879;DHT22;9065;51.050;13.758;2023-03-19T05:25:12;9.20;99.90
17879;DHT22;9065;51.050;13.758;2023-03-19T05:27:40;9.20;99.90
17879;DHT22;9065;51.050;13.758;2023-03-19T05:30:08;9.20;99.90
17879;DHT22;9065;51.050;13.758;2023-03-19T05:32:35;9.20;99.90
17879;DHT22;9065;51.050;13.758;2023-03-19T05:35:03;9.20;99.90
17879;DHT22;9065;51.050;13.758;2023-03-19T05:37:32;9.20;99.90
17879;DHT22;9065;51.050;13.758;2023-03-19T05:39:59;9.30;99.90
17879;DHT22;9065;51.050;13.758;2023-03-19T05:42:25;9.40;99.90
17879;DHT22;9065;51.050;13.758;2023-03-19T05:44:52;9.40;99.90
17879;DHT22;9065;51.050;13.758;2023-03-19T05:47:19;9.50;99.90
17879;DHT22;9065;51.050;13.758;2023-03-19T05:49:46;9.50;99.90
17879;DHT22;9065;51.050;13.758;2023-03-19T05:52:13;9.40;99.90
17879;DHT22;9065;51.050;13.758;2023-03-19T05:54:41;9.50;99.90
17879;DHT22;9065;51.050;13.758;2023-03-19T05:57:08;9.50;99.90
17879;DHT22;9065;51.050;13.758;2023-03-19T05:59:35;9.50;99.90
17879;DHT22;9065;51.050;13.758;2023-03-19T06:02:02;9.50;99.90
17879;DHT22;9065;51.050;13.758;2023-03-19T06:04:28;9.60;99.90
17879;DHT22;9065;51.050;13.758;2023-03-19T06:06:56;9.60;99.90
17879;DHT22;9065;51.050;13.758;2023-03-19T06:09:23;9.70;99.90
17879;DHT22;9065;51.050;13.758;2023-03-19T06:11:51;9.70;99.90
17879;DHT22;9065;51.050;13.758;2023-03-19T06:14:18;9.70;99.90
17879;DHT22;9065;51.050;13.758;2023-03-19T06:16:45;9.80;99.90
17879;DHT22;9065;51.050;13.758;2023-03-19T06:19:11;9.80;99.90
17879;DHT22;9065;51.050;13.758;2023-03-19T06:21:38;9.90;99.90
17879;DHT22;9065;51.050;13.758;2023-03-19T06:24:06;10.00;99.90
17879;DHT22;9065;51.050;13.758;2023-03-19T06:26:33;10.10;99.90
17879;DHT22;9065;51.050;13.758;2023-03-19T06:29:01;10.10;99.90
17879;DHT22;9065;51.050;13.758;2023-03-19T06:31:28;10.10;99.90
17879;DHT22;9065;51.050;13.758;2023-03-19T06:34:01;10.20;99.90
17879;DHT22;9065;51.050;13.758;2023-03-19T06:36:28;10.20;99.90
17879;DHT22;9065;51.050;13.758;2023-03-19T06:38:55;10.20;99.90
17879;DHT22;9065;51.050;13.758;2023-03-19T06:41:22;10.20;99.90
17879;DHT22;9065;51.050;13.758;2023-03-19T06:43:49;10.40;99.90
17879;DHT22;9065;51.050;13.758;2023-03-19T06:46:17;10.40;99.90
17879;DHT22;9065;51.050;13.758;2023-03-19T06:48:44;10.60;99.90
17879;DHT22;9065;51.050;13.758;2023-03-19T06:51:10;10.50;99.90
17879;DHT22;9065;51.050;13.758;2023-03-19T06:53:37;10.60;99.90
17879;DHT22;9065;51.050;13.758;2023-03-19T06:56:04;10.70;99.90
17879;DHT22;9065;51.050;13.758;2023-03-19T06:58:31;10.80;99.90
17879;DHT22;9065;51.050;13.758;2023-03-19T07:00:59;10.90;99.90
17879;DHT22;9065;51.050;13.758;2023-03-19T07:03:27;11.10;99.90
17879;DHT22;9065;51.050;13.758;2023-03-19T07:05:54;11.30;99.90
17879;DHT22;9065;51.050;13.758;2023-03-19T07:08:21;11.40;99.90
17879;DHT22;9065;51.050;13.758;2023-03-19T07:10:48;11.50;99.90
17879;DHT22;9065;51.050;13.758;2023-03-19T07:13:15;11.60;99.90
17879;DHT22;9065;51.050;13.758;2023-03-19T07:15:41;11.70;99.90
17879;DHT22;9065;51.050;13.758;2023-03-19T07:18:08;11.80;99.90
17879;DHT22;9065;51.050;13.758;2023-03-19T07:20:36;11.90;99.90
17879;DHT22;9065;51.050;13.758;2023-03-19T07:23:04;11.90;99.90
17879;DHT22;9065;51.050;13.758;2023-03-19T07:25:31;12.00;99.90
17879;DHT22;9065;51.050;13.758;2023-03-19T07:27:58;12.30;99.90
17879;DHT22;9065;51.050;13.758;2023-03-19T07:30:25;12.60;99.90
17879;DHT22;9065;51.050;13.758;2023-03-19T07:32:52;12.40;99.90
17879;DHT22;9065;51.050;13.758;2023-03-19T07:35:20;12.60;99.90
17879;DHT22;9065;51.050;13.758;2023-03-19T07:37:48;12.70;99.90
17879;DHT22;9065;51.050;13.758;2023-03-19T07:40:15;12.80;99.90
17879;DHT22;9065;51.050;13.758;2023-03-19T07:42:42;12.80;99.90
17879;DHT22;9065;51.050;13.758;2023-03-19T07:45:09;12.80;99.90
17879;DHT22;9065;51.050;13.758;2023-03-19T07:47:36;12.90;99.90
17879;DHT22;9065;51.050;13.758;2023-03-19T07:50:03;13.20;99.90
17879;DHT22;9065;51.050;13.758;2023-03-19T07:52:30;13.40;99.90
17879;DHT22;9065;51.050;13.758;2023-03-19T07:54:58;13.60;99.90
17879;DHT22;9065;51.050;13.758;2023-03-19T07:57:25;13.80;99.90
17879;DHT22;9065;51.050;13.758;2023-03-19T07:59:52;14.00;99.90
17879;DHT22;9065;51.050;13.758;2023-03-19T08:02:19;14.10;99.90
17879;DHT22;9065;51.050;13.758;2023-03-19T08:04:46;14.10;99.90
17879;DHT22;9065;51.050;13.758;2023-03-19T08:07:12;14.10;99.90
17879;DHT22;9065;51.050;13.758;2023-03-19T08:09:40;14.30;99.90
17879;DHT22;9065;51.050;13.758;2023-03-19T08:12:09;14.50;99.90
17879;DHT22;9065;51.050;13.758;2023-03-19T08:14:36;14.70;99.90
17879;DHT22;9065;51.050;13.758;2023-03-19T08:17:02;15.00;99.90
17879;DHT22;9065;51.050;13.758;2023-03-19T08:19:29;15.60;99.90
17879;DHT22;9065;51.050;13.758;2023-03-19T08:21:57;15.90;99.90
17879;DHT22;9065;51.050;13.758;2023-03-19T08:24:23;15.90;99.90
17879;DHT22;9065;51.050;13.758;2023-03-19T08:26:50;16.00;99.90
17879;DHT22;9065;51.050;13.758;2023-03-19T08:29:19;16.00;99.90
17879;DHT22;9065;51.050;13.758;2023-03-19T08:31:46;16.00;99.90
17879;DHT22;9065;51.050;13.758;2023-03-19T08:34:13;16.00;99.90
17879;DHT22;9065;51.050;13.758;2023-03-19T08:36:39;15.80;99.90
17879;DHT22;9065;51.050;13.758;2023-03-19T08:39:07;15.80;99.90
17879;DHT22;9065;51.050;13.758;2023-03-19T08:41:33;15.70;99.90
17879;DHT22;9065;51.050;13.758;2023-03-19T08:44:00;15.50;99.90
17879;DHT22;9065;51.050;13.758;2023-03-19T08:46:29;15.40;99.90
17879;DHT22;9065;51.050;13.758;2023-03-19T08:48:56;15.60;99.90
17879;DHT22;9065;51.050;13.758;2023-03-19T08:51:23;15.80;99.90
17879;DHT22;9065;51.050;13.758;2023-03-19T08:53:53;16.10;99.90
17879;DHT22;9065;51.050;13.758;2023-03-19T08:56:20;16.30;99.90
17879;DHT22;9065;51.050;13.758;2023-03-19T08:58:47;16.80;99.90
17879;DHT22;9065;51.050;13.758;2023-03-19T09:01:14;16.80;99.90
17879;DHT22;9065;51.050;13.758;2023-03-19T09:03:43;16.80;99.90
17879;DHT22;9065;51.050;13.758;2023-03-19T09:06:11;16.70;99.90
17879;DHT22;9065;51.050;13.758;2023-03-19T09:08:38;16.60;99.90
17879;DHT22;9065;51.050;13.758;2023-03-19T09:11:06;16.40;99.90
17879;DHT22;9065;51.050;13.758;2023-03-19T09:13:33;16.70;99.90
17879;DHT22;9065;51.050;13.758;2023-03-19T09:16:00;16.80;99.90
17879;DHT22;9065;51.050;13.758;2023-03-19T09:18:27;16.90;99.90
17879;DHT22;9065;51.050;13.758;2023-03-19T09:20:55;17.00;99.90
17879;DHT22;9065;51.050;13.758;2023-03-19T09:23:23;17.10;99.90
17879;DHT22;9065;51.050;13.758;2023-03-19T09:25:50;17.00;99.90
17879;DHT22;9065;51.050;13.758;2023-03-19T09:28:17;17.00;99.90
17879;DHT22;9065;51.050;13.758;2023-03-19T09:30:45;16.90;99.90
17879;DHT22;9065;51.050;13.758;2023-03-19T09:33:13;17.10;99.90
17879;DHT22;9065;51.050;13.758;2023-03-19T09:35:48;17.30;99.90
17879;DHT22;9065;51.050;13.758;2023-03-19T09:38:16;17.40;99.90
17879;DHT22;9065;51.050;13.758;2023-03-19T09:40:45;17.40;99.90
17879;DHT22;9065;51.050;13.758;2023-03-19T09:43:29;17.10;99.90
17879;DHT22;9065;51.050;13.758;2023-03-19T09:46:03;17.20;99.90
17879;DHT22;9065;51.050;13.758;2023-03-19T09:48:34;17.00;99.90
17879;DHT22;9065;51.050;13.758;2023-03-19T09:51:11;17.20;99.90
17879;DHT22;9065;51.050;13.758;2023-03-19T09:53:46;17.50;99.90
17879;DHT22;9065;51.050;13.758;2023-03-19T09:56:15;17.40;99.90
17879;DHT22;9065;51.050;13.758;2023-03-19T09:58:44;17.30;99.90
17879;DHT22;9065;51.050;13.758;2023-03-19T10:01:22;17.40;99.90
17879;DHT22;9065;51.050;13.758;2023-03-19T10:04:03;17.60;99.90
17879;DHT22;9065;51.050;13.758;2023-03-19T10:06:33;17.90;99.90
17879;DHT22;9065;51.050;13.758;2023-03-19T10:09:19;18.40;99.90
17879;DHT22;9065;51.050;13.758;2023-03-19T10:11:57;18.50;99.90
17879;DHT22;9065;51.050;13.758;2023-03-19T10:17:27;19.00;99.90
17879;DHT22;9065;51.050;13.758;2023-03-19T10:20:00;19.50;99.10
17879;DHT22;9065;51.050;13.758;2023-03-19T10:22:31;19.50;97.40
17879;DHT22;9065;51.050;13.758;2023-03-19T10:25:02;19.50;98.20
17879;DHT22;9065;51.050;13.758;2023-03-19T10:27:30;19.90;96.90
17879;DHT22;9065;51.050;13.758;2023-03-19T10:29:56;20.20;97.90
17879;DHT22;9065;51.050;13.758;2023-03-19T10:32:30;20.70;96.60
17879;DHT22;9065;51.050;13.758;2023-03-19T10:35:06;21.10;96.20
17879;DHT22;9065;51.050;13.758;2023-03-19T10:37:36;21.70;97.00
17879;DHT22;9065;51.050;13.758;2023-03-19T10:40:16;21.50;94.20
17879;DHT22;9065;51.050;13.758;2023-03-19T10:42:56;20.60;94.80
17879;DHT22;9065;51.050;13.758;2023-03-19T10:45:29;19.80;95.00
17879;DHT22;9065;51.050;13.758;2023-03-19T10:47:58;19.50;96.60
17879;DHT22;9065;51.050;13.758;2023-03-19T10:50:29;19.40;96.00
17879;DHT22;9065;51.050;13.758;2023-03-19T10:53:04;19.60;95.40
17879;DHT22;9065;51.050;13.758;2023-03-19T10:55:33;19.40;97.20
17879;DHT22;9065;51.050;13.758;2023-03-19T10:58:03;19.60;97.30
17879;DHT22;9065;51.050;13.758;2023-03-19T11:00:31;19.50;96.00
17879;DHT22;9065;51.050;13.758;2023-03-19T11:03:00;19.60;96.30
17879;DHT22;9065;51.050;13.758;2023-03-19T11:05:31;19.50;96.60
17879;DHT22;9065;51.050;13.758;2023-03-19T11:08:00;19.40;96.90
17879;DHT22;9065;51.050;13.758;2023-03-19T11:10:30;19.30;97.90
17879;DHT22;9065;51.050;13.758;2023-03-19T11:13:03;19.10;97.00
17879;DHT22;9065;51.050;13.758;2023-03-19T11:15:33;19.30;98.70
17879;DHT22;9065;51.050;13.758;2023-03-19T11:18:06;19.40;98.00
17879;DHT22;9065;51.050;13.758;2023-03-19T11:20:35;19.50;98.40
17879;DHT22;9065;51.050;13.758;2023-03-19T11:23:06;19.60;98.30
17879;DHT22;9065;51.050;13.758;2023-03-19T11:25:38;19.60;98.40
17879;DHT22;9065;51.050;13.758;2023-03-19T11:28:11;19.40;99.00
17879;DHT22;9065;51.050;13.758;2023-03-19T11:30:46;19.30;98.00
17879;DHT22;9065;51.050;13.758;2023-03-19T11:33:35;19.00;97.50
17879;DHT22;9065;51.050;13.758;2023-03-19T11:36:09;18.70;97.90
17879;DHT22;9065;51.050;13.758;2023-03-19T11:38:45;18.60;99.30
17879;DHT22;9065;51.050;13.758;2023-03-19T11:41:25;18.90;99.90
17879;DHT22;9065;51.050;13.758;2023-03-19T11:44:00;19.30;99.90
17879;DHT22;9065;51.050;13.758;2023-03-19T11:46:35;19.60;98.90
17879;DHT22;9065;51.050;13.758;2023-03-19T11:49:35;19.70;97.30
17879;DHT22;9065;51.050;13.758;2023-03-19T11:52:10;19.60;98.80
17879;DHT22;9065;51.050;13.758;2023-03-19T11:54:48;19.70;99.20
17879;DHT22;9065;51.050;13.758;2023-03-19T11:57:27;19.70;98.50
17879;DHT22;9065;51.050;13.758;2023-03-19T12:00:10;19.70;98.80
17879;DHT22;9065;51.050;13.758;2023-03-19T12:03:00;19.70;97.10
17879;DHT22;9065;51.050;13.758;2023-03-19T12:05:39;19.60;99.90
17879;DHT22;9065;51.050;13.758;2023-03-19T12:08:19;19.60;98.10
17879;DHT22;9065;51.050;13.758;2023-03-19T12:10:57;19.40;99.60
17879;DHT22;9065;51.050;13.758;2023-03-19T12:13:40;19.30;99.90
17879;DHT22;9065;51.050;13.758;2023-03-19T12:16:19;19.30;99.10
17879;DHT22;9065;51.050;13.758;2023-03-19T12:19:10;19.50;99.90
17879;DHT22;9065;51.050;13.758;2023-03-19T12:21:50;19.50;99.60
17879;DHT22;9065;51.050;13.758;2023-03-19T12:24:23;19.50;99.30
17879;DHT22;9065;51.050;13.758;2023-03-19T12:27:03;19.60;98.50
17879;DHT22;9065;51.050;13.758;2023-03-19T12:29:39;19.60;99.40
17879;DHT22;9065;51.050;13.758;2023-03-19T12:32:24;19.50;99.40
17879;DHT22;9065;51.050;13.758;2023-03-19T12:34:55;19.40;99.60
17879;DHT22;9065;51.050;13.758;2023-03-19T12:37:27;19.30;98.50
17879;DHT22;9065;51.050;13.758;2023-03-19T12:40:10;19.30;98.30
17879;DHT22;9065;51.050;13.758;2023-03-19T12:42:40;19.30;98.50
17879;DHT22;9065;51.050;13.758;2023-03-19T12:45:24;19.00;98.50
17879;DHT22;9065;51.050;13.758;2023-03-19T12:47:58;18.90;98.50
17879;DHT22;9065;51.050;13.758;2023-03-19T12:50:27;18.80;99.90
17879;DHT22;9065;51.050;13.758;2023-03-19T12:52:57;18.80;99.90
17879;DHT22;9065;51.050;13.758;2023-03-19T12:55:33;18.80;99.40
17879;DHT22;9065;51.050;13.758;2023-03-19T12:58:07;18.80;99.20
17879;DHT22;9065;51.050;13.758;2023-03-19T13:00:44;18.80;99.90
17879;DHT22;9065;51.050;13.758;2023-03-19T13:03:15;18.70;99.90
17879;DHT22;9065;51.050;13.758;2023-03-19T13:05:46;18.70;99.90
17879;DHT22;9065;51.050;13.758;2023-03-19T13:08:17;18.70;99.60
17879;DHT22;9065;51.050;13.758;2023-03-19T13:10:45;18.70;99.90
17879;DHT22;9065;51.050;13.758;2023-03-19T13:13:26;18.70;99.90
17879;DHT22;9065;51.050;13.758;2023-03-19T13:15:56;18.70;99.50
17879;DHT22;9065;51.050;13.758;2023-03-19T13:18:34;18.60;99.90
17879;DHT22;9065;51.050;13.758;2023-03-19T13:21:14;18.50;99.90
17879;DHT22;9065;51.050;13.758;2023-03-19T13:23:50;18.40;99.90
17879;DHT22;9065;51.050;13.758;2023-03-19T13:26:23;18.40;99.90
17879;DHT22;9065;51.050;13.758;2023-03-19T13:28:54;18.40;99.90
17879;DHT22;9065;51.050;13.758;2023-03-19T13:31:25;18.40;99.90
17879;DHT22;9065;51.050;13.758;2023-03-19T13:34:00;18.30;99.90
17879;DHT22;9065;51.050;13.758;2023-03-19T13:36:29;18.30;99.90
17879;DHT22;9065;51.050;13.758;2023-03-19T13:38:57;18.20;99.90
17879;DHT22;9065;51.050;13.758;2023-03-19T13:41:47;18.20;99.90
17879;DHT22;9065;51.050;13.758;2023-03-19T13:44:39;18.30;99.90
17879;DHT22;9065;51.050;13.758;2023-03-19T13:47:38;18.40;99.90
17879;DHT22;9065;51.050;13.758;2023-03-19T13:50:30;18.50;99.90
17879;DHT22;9065;51.050;13.758;2023-03-19T13:53:40;18.60;99.90
17879;DHT22;9065;51.050;13.758;2023-03-19T13:56:09;18.30;99.90
17879;DHT22;9065;51.050;13.758;2023-03-19T13:58:46;18.40;99.90
17879;DHT22;9065;51.050;13.758;2023-03-19T14:01:37;18.40;99.90
17879;DHT22;9065;51.050;13.758;2023-03-19T14:04:05;18.50;99.90
17879;DHT22;9065;51.050;13.758;2023-03-19T14:06:39;18.60;99.90
17879;DHT22;9065;51.050;13.758;2023-03-19T14:09:37;18.50;99.90
17879;DHT22;9065;51.050;13.758;2023-03-19T14:12:29;18.40;99.90
17879;DHT22;9065;51.050;13.758;2023-03-19T14:14:58;18.50;99.90
17879;DHT22;9065;51.050;13.758;2023-03-19T14:17:30;18.60;99.90
17879;DHT22;9065;51.050;13.758;2023-03-19T14:20:19;18.60;99.90
17879;DHT22;9065;51.050;13.758;2023-03-19T14:23:18;18.60;99.90
17879;DHT22;9065;51.050;13.758;2023-03-19T14:26:02;18.70;99.90
17879;DHT22;9065;51.050;13.758;2023-03-19T14:28:37;18.60;99.90
17879;DHT22;9065;51.050;13.758;2023-03-19T14:31:05;18.60;99.90
17879;DHT22;9065;51.050;13.758;2023-03-19T14:33:45;18.50;99.90
17879;DHT22;9065;51.050;13.758;2023-03-19T14:36:19;18.50;99.90
17879;DHT22;9065;51.050;13.758;2023-03-19T14:38:50;18.50;99.90
17879;DHT22;9065;51.050;13.758;2023-03-19T14:41:19;18.50;99.90
17879;DHT22;9065;51.050;13.758;2023-03-19T14:44:04;18.50;99.90
17879;DHT22;9065;51.050;13.758;2023-03-19T14:46:44;18.40;99.90
17879;DHT22;9065;51.050;13.758;2023-03-19T14:52:22;18.30;99.90
17879;DHT22;9065;51.050;13.758;2023-03-19T14:54:54;18.40;99.90
17879;DHT22;9065;51.050;13.758;2023-03-19T14:57:26;18.40;99.90
17879;DHT22;9065;51.050;13.758;2023-03-19T14:59:54;18.40;99.90
17879;DHT22;9065;51.050;13.758;2023-03-19T15:02:31;18.30;99.90
17879;DHT22;9065;51.050;13.758;2023-03-19T15:04:59;18.40;99.90
17879;DHT22;9065;51.050;13.758;2023-03-19T15:07:29;18.40;99.90
17879;DHT22;9065;51.050;13.758;2023-03-19T15:10:01;18.40;99.90
17879;DHT22;9065;51.050;13.758;2023-03-19T15:12:36;18.40;99.90
17879;DHT22;9065;51.050;13.758;2023-03-19T15:15:23;18.30;99.90
17879;DHT22;9065;51.050;13.758;2023-03-19T15:17:58;18.30;99.90
17879;DHT22;9065;51.050;13.758;2023-03-19T15:20:26;18.40;99.90
17879;DHT22;9065;51.050;13.758;2023-03-19T15:22:59;18.40;99.90
17879;DHT22;9065;51.050;13.758;2023-03-19T15:25:27;18.40;99.90
17879;DHT22;9065;51.050;13.758;2023-03-19T15:28:07;18.40;99.90
17879;DHT22;9065;51.050;13.758;2023-03-19T15:30:34;18.30;99.90
17879;DHT22;9065;51.050;13.758;2023-03-19T15:33:01;18.30;99.90
17879;DHT22;9065;51.050;13.758;2023-03-19T15:35:30;18.40;99.90
17879;DHT22;9065;51.050;13.758;2023-03-19T15:37:59;18.40;99.90
17879;DHT22;9065;51.050;13.758;2023-03-19T15:40:30;18.40;99.90
17879;DHT22;9065;51.050;13.758;2023-03-19T15:42:59;18.40;99.90
17879;DHT22;9065;51.050;13.758;2023-03-19T15:45:28;18.40;99.90
17879;DHT22;9065;51.050;13.758;2023-03-19T15:47:58;18.40;99.90
17879;DHT22;9065;51.050;13.758;2023-03-19T15:50:28;18.00;99.90
17879;DHT22;9065;51.050;13.758;2023-03-19T15:52:59;17.60;99.90
17879;DHT22;9065;51.050;13.758;2023-03-19T15:55:29;17.30;99.90
17879;DHT22;9065;51.050;13.758;2023-03-19T15:58:04;17.20;99.90
17879;DHT22;9065;51.050;13.758;2023-03-19T16:00:31;17.20;99.90